Home > Products > Valid Products > MTR

000
SAZS31 NSTU 120254
MTRPPG
METAR NSTU 120250Z 11011KT 12SM SCT018 BKN040 BKN100 33/27 A2976 RMK
SLP078 8/470 T03340269 57015=




000
SAZS31 NSTU 120150
MTRPPG
METAR NSTU 120150Z 11010KT 12SM FEW019 SCT040 BKN100 BKN180 33/27
A2977 RMK SLP083 T03330268=




000
SAZS31 NSTU 120150
MTRPPG
METAR NSTU 120150Z 11010KT 12SM FEW019 SCT040 BKN100 BKN180 33/27
A2977 RMK SLP083 T03330268=




000
SAZS31 NSTU 120053
MTRPPG
METAR NSTU 120052Z 10012KT 11SM FEW019 SCT040 BKN100 BKN180 35/27
A2978 RMK SLP086 T03480272=




000
SAZS31 NSTU 120053
MTRPPG
METAR NSTU 120052Z 10012KT 11SM FEW019 SCT040 BKN100 BKN180 35/27
A2978 RMK SLP086 T03480272=




000
SAZS31 NSTU 112353
MTRPPG
METAR NSTU 112350Z 10012KT 11SM FEW019 BKN040 BKN100 OVC180 34/27
A2980 RMK SLP093 8/472 T03420271 10342 20286 57014=




000
SAZS31 NSTU 112255
MTRPPG
METAR NSTU 112253Z 10015KT 11SM SCT019 BKN040 BKN100 34/27 A2982 RMK
SLP098 T03360269=




000
SAZS31 NSTU 112158
MTRPPG
METAR NSTU 112154Z 11014KT 12SM SCT019 BKN040 BKN100 33/27 A2984 RMK
SLP105 T03310267=




000
SAZS31 NSTU 112057
MTRPPG
METAR NSTU 112054Z 11013KT 11SM SCT019 BKN040 BKN100 32/26 A2984 RMK
SLP107 8/470 T03230263 52007=




000
SAZS31 NSTU 112057
MTRPPG
METAR NSTU 112054Z 11013KT 11SM SCT019 BKN040 BKN100 32/26 A2984 RMK
SLP107 8/470 T03230263 52007=




000
SAZS31 NSTU 112007
MTRPPG
METAR NSTU 111952Z 11012KT 11SM SCT017 BKN040 OVC100 31/26 A2985 RMK
SLP108 T03080264=




000
SAZS31 NSTU 111907
MTRPPG
METAR NSTU 111852Z 10013KT 11SM SCT017 BKN040 OVC100 30/26 A2984 RMK
SLP107 T02960261=




000
SAZS31 NSTU 111907
MTRPPG
METAR NSTU 111852Z 10013KT 11SM SCT017 BKN040 OVC100 30/26 A2984 RMK
SLP107 T02960261=




000
SAZS31 NSTU 111754
MTRPPG
METAR NSTU 111750Z 10013KT 11SM SCT017 OVC110 29/26 A2982 RMK SLP100
8/17/ T02860258 10290 20285 51007=




000
SAZS31 NSTU 111754
MTRPPG
METAR NSTU 111750Z 10013KT 11SM SCT017 OVC110 29/26 A2982 RMK SLP100
8/17/ T02860258 10290 20285 51007=




000
SAZS31 NSTU 111650
MTRPPG
METAR NSTU 111650Z 12011KT 10SM FEW017 BKN040 OVC110 29/26 A2981 RMK
SLP097 T02860260=




000
SAZS31 NSTU 111550
MTRPPG
METAR NSTU 111550Z 10010KT 10SM SCT017 BKN110 29/26 A2981 RMK SLP093
T02850258=




000
SAZS31 NSTU 111521
MTRPPG
METAR NSTU 111451Z 10012KT 10SM SCT020 BKN110 29/26 A2980 RMK SLP093
8/170 T02850257 56012=




000
SAZS31 NSTU 111521
MTRPPG
METAR NSTU 111451Z 10012KT 10SM SCT020 BKN110 29/26 A2980 RMK SLP093
8/170 T02850257 56012=




000
SAZS31 NSTU 111351
MTRPPG
METAR NSTU 111350Z 10012KT 10SM SCT020 BKN110 29/26 A2981 RMK SLP097
T02880262=




000
SAZS31 NSTU 111253
MTRPPG
METAR NSTU 111251Z 10013KT 10SM SCT020 BKN110 29/26 A2982 RMK SLP098
T02890264=




000
SAZS31 NSTU 111253
MTRPPG
METAR NSTU 111251Z 10013KT 10SM SCT020 BKN110 29/26 A2982 RMK SLP098
T02890264=




000
SAZS31 NSTU 111201
MTRPPG
METAR NSTU 111154Z 11011KT 10SM SCT020 BKN110 29/27 A2984 RMK SLP105
60000 70008 8/170 T02900265 10294 20288 57008=




000
SAZS31 NSTU 111201
MTRPPG
METAR NSTU 111154Z 11011KT 10SM SCT020 BKN110 29/27 A2984 RMK SLP105
60000 70008 8/170 T02900265 10294 20288 57008=




000
SAZS31 NSTU 111051
MTRPPG
METAR NSTU 111050Z 11011KT 10SM SCT018 29/27 A2986 RMK SLP112
T02890266 403470286=




000
SAZS31 NSTU 110959
MTRPPG
METAR NSTU 110955Z 10009KT 10SM BKN015 29/26 A2987 RMK SLP115
T02900263=





000
SAZS31 NSTU 110754
MTRPPG
METAR NSTU 110750Z 11010KT 10SM SCT017 29/27 A2984 RMK SLP107
T02930268=





000
SAZS31 NSTU 110754
MTRPPG
METAR NSTU 110750Z 11010KT 10SM SCT017 29/27 A2984 RMK SLP107
T02930268=





000
SAZS31 NSTU 110658
MTRPPG
METAR NSTU 110655Z 12009KT 10SM SCT016 29/27 A2982 RMK SLP100
T02940269=





000
SAZS31 NSTU 110658
MTRPPG
METAR NSTU 110655Z 12009KT 10SM SCT016 29/27 A2982 RMK SLP100
T02940269=





000
SAZS31 NSTU 110627
MTRPPG
METAR NSTU 110550Z 10010KT 10SM SCT016 29/27 A2981 RMK SLP095 60008
8/100 T02930268 10347 20292 52014=





000
SAZS31 NSTU 110627
MTRPPG
METAR NSTU 110550Z 10010KT 10SM SCT016 29/27 A2981 RMK SLP095 60008
8/100 T02930268 10347 20292 52014=





000
SAZS31 NSTU 110513
MTRPPG
METAR NSTU 110451Z 06005KT 12SM SCT016 29/27 A2979 RMK SHRAB27E40
SLP088 T02920265=





000
SAZS31 NSTU 110513
MTRPPG
METAR NSTU 110451Z 06005KT 12SM SCT016 29/27 A2979 RMK SHRAB27E40
SLP088 T02920265=





000
SAZS31 NSTU 110356
MTRPPG
METAR NSTU 110350Z 11009KT 12SM SCT016 33/27 A2977 RMK SLP083
T03260267=





000
SAZS31 NSTU 110356
MTRPPG
METAR NSTU 110350Z 11009KT 12SM SCT016 33/27 A2977 RMK SLP083
T03260267=





000
SAZS31 NSTU 110253
MTRPPG
METAR NSTU 110250Z 12010KT 12SM FEW015 SCT025TCU 33/27 A2977 RMK TCU
NW-N-E SLP081 8/200 T03300269 56008=




000
SAZS31 NSTU 110253
MTRPPG
METAR NSTU 110250Z 12010KT 12SM FEW015 SCT025TCU 33/27 A2977 RMK TCU
NW-N-E SLP081 8/200 T03300269 56008=




000
SAZS31 NSTU 110150
MTRPPG
METAR NSTU 110150Z 11010KT 12SM SCT023 34/27 A2977 RMK SLP083
T03390270=




000
SAZS31 NSTU 110057
MTRPPG
METAR NSTU 110056Z 10011KT 12SM FEW020 SCT100 34/27 A2978 RMK SLP085
T03420266=




000
SAZS31 NSTU 110057
MTRPPG
METAR NSTU 110056Z 10011KT 12SM FEW020 SCT100 34/27 A2978 RMK SLP085
T03420266=




000
SAZS31 NSTU 102354
MTRPPG
METAR NSTU 102351Z 10012KT 12SM FEW020 SCT100 35/27 A2979 RMK SLP090
8/170 T03470274 10347 20291 57010=




000
SAZS31 NSTU 102354
MTRPPG
METAR NSTU 102351Z 10012KT 12SM FEW020 SCT100 35/27 A2979 RMK SLP090
8/170 T03470274 10347 20291 57010=




000
SAZS31 NSTU 102252
MTRPPG
METAR NSTU 102250Z 11013KT 12SM FEW023 SCT100 35/28 A2980 RMK SLP093
T03450275=




000
SAZS31 NSTU 102252
MTRPPG
METAR NSTU 102250Z 11013KT 12SM FEW023 SCT100 35/28 A2980 RMK SLP093
T03450275=




000
SAZS31 NSTU 102154
MTRPPG
METAR NSTU 102153Z 10012KT 12SM FEW023 SCT100 34/27 A2982 RMK SLP098
T03420273=




000
SAZS31 NSTU 102154
MTRPPG
METAR NSTU 102153Z 10012KT 12SM FEW023 SCT100 34/27 A2982 RMK SLP098
T03420273=




000
SAZS31 NSTU 102104
MTRPPG
METAR NSTU 102055Z 10011KT 12SM FEW023 SCT100 33/27 A2982 RMK SLP100
8/170 T03320272 54000=




000
SAZS31 NSTU 101957
MTRPPG
METAR NSTU 101951Z 10011KT 12SM FEW017 SCT110 32/27 A2983 RMK SLP103
T03200270=




000
SAZS31 NSTU 101952
MTRPPG
METAR NSTU 101951Z 10011KT 12SM FEW017 SCT110 32/27 A2983 RMK SLP103
T03200270=




000
SAZS31 NSTU 101952
MTRPPG
METAR NSTU 101951Z 10011KT 12SM FEW017 SCT110 32/27 A2983 RMK SLP103
T03200270=




000
SAZS31 NSTU 101900
MTRPPG
METAR NSTU 101850Z 10012KT 12SM FEW017 SCT110 31/27 A2984 RMK SLP105
T03070269=





000
SAZS31 NSTU 101900
MTRPPG
METAR NSTU 101850Z 10012KT 12SM FEW017 SCT110 31/27 A2984 RMK SLP105
T03070269=





000
SAZS31 NSTU 101800
MTRPPG
METAR NSTU 101750Z 10011KT 12SM SCT017 SCT110 29/27 A2983 RMK SLP100
8/160 T02910266 10291 20286 52005=





000
SAZS31 NSTU 101800
MTRPPG
METAR NSTU 101750Z 10011KT 12SM SCT017 SCT110 29/27 A2983 RMK SLP100
8/160 T02910266 10291 20286 52005=





000
SAZS31 NSTU 101700
MTRPPG
METAR NSTU 101655Z 10010KT 10SM SCT017 SCT110 29/26 A2982 RMK SLP098
T02880263=





000
SAZS31 NSTU 101700
MTRPPG
METAR NSTU 101655Z 10010KT 10SM SCT017 SCT110 29/26 A2982 RMK SLP098
T02880263=





000
SAZS31 NSTU 101600
MTRPPG
METAR NSTU 101553Z 10010KT 10SM SCT019 29/26 A2981 RMK SLP095
T02890263==





000
SAZS31 NSTU 101600
MTRPPG
METAR NSTU 101553Z 10010KT 10SM SCT019 29/26 A2981 RMK SLP095
T02890263==





000
SAZS31 NSTU 101500
MTRPPG
METAR NSTU 101455Z 07006KT 10SM SCT018 29/26 A2981 RMK SLP095 8/100
T02870263 57007=





000
SAZS31 NSTU 101400
MTRPPG
METAR NSTU 101352Z 10008KT 10SM FEW0020 29/26 A2981 RMK SLP097
T02880263=





000
SAZS31 NSTU 101400
MTRPPG
METAR NSTU 101352 10008KT 10SM SCT018 29/26 A2981 RMK SLP097
T02880263=





000
SAZS31 NSTU 101300
MTRPPG
METAR NSTU 101256Z VRB05KT 10SM SCT018 29/26 A2981 RMK SLP097
T02900264=





000
SAZS31 NSTU 101200
MTRPPG
METAR NSTU 101150Z VRB02KT 10SM FEW0020 29/26 A2983 RMK SLP102 8/100
T02860260 10303 20286 52003=





000
SAZS31 NSTU 101100
MTRPPG
METAR NSTU 101050Z VRB03KT 10SM FEW0020 29/26 A2983 RMK SLP103
T02910263 403450267=





000
SAZS31 NSTU 100050
MTRPPG
METAR NSTU 100050Z 08010KT 12SM FEW025 35/26 A2972 RMK SLP064
T03450255=




000
SAZS31 NSTU 100050
MTRPPG
METAR NSTU 100050Z 08010KT 12SM FEW025 35/26 A2972 RMK SLP064
T03450255=




000
SAZS31 NSTU 092353
MTRPPG
METAR NSTU 092350Z 10013KT 12SM SCT025 34/27 A2971 RMK SLP061 8/100
T03420270 10342 20271 56025=




000
SAZS31 NSTU 092353
MTRPPG
METAR NSTU 092350Z 10013KT 12SM SCT025 34/27 A2971 RMK SLP061 8/100
T03420270 10342 20271 56025=




000
SAZS31 NSTU 092254
MTRPPG
METAR NSTU 092253Z 10013KT 12SM SCT025 34/27 A2976 RMK SLP078
T03410267=




000
SAZS31 NSTU 092153
MTRPPG
METAR NSTU 092150Z 10012KT 12SM FEW021 SCT100 SCT180 34/27 A2977 RMK
SLP083 T03350269=




000
SAZS31 NSTU 092055
MTRPPG
METAR NSTU 092054Z 10010KT 12SM FEW021 SCT100 BKN180 33/27 A2979 RMK
SLP086 8/171 T03310267 52002=




000
SAZS31 NSTU 091853
MTRPPG
METAR NSTU 091852Z VRB04KT 12SM FEW018 SCT120 SCT240 30/27 A2979 RMK
SLP088 T02970269=





000
SAZS31 NSTU 091853
MTRPPG
METAR NSTU 091852Z VRB04KT 12SM FEW018 SCT120 SCT240 30/27 A2979 RMK
SLP088 T02970269=





000
SMZS01 NSTU 091753
MTRPPG
AAXX 09184
91765 32469 50000 10271 20256 30081 40085 52007 81171 333 56999 555
90918=




000
SAZS31 NSTU 091752
MTRPPG
METAR NSTU 091750Z 00000KT 12SM FEW018 SCT120 BKN240 27/26 A2978 RMK
SLP085 8/171 T02710256 10277 20267 52007=




000
SAZS31 NSTU 091650
MTRPPG
METAR NSTU 091650Z VRB02KT 10SM FEW018 SCT040 SCT240 27/25 A2977 RMK
SLP083 T02670252=




000
SAZS31 NSTU 091650
MTRPPG
METAR NSTU 091650Z VRB02KT 10SM FEW018 SCT040 SCT240 27/25 A2977 RMK
SLP083 T02670252=




000
SAZS31 NSTU 091556
MTRPPG
METAR NSTU 091554Z 00000KT 10SM FEW023 FEW240 27/25 A2976 RMK SLP080
T02670253=




000
SAZS31 NSTU 091453
MTRPPG
METAR NSTU 091451Z 00000KT 10SM FEW023 FEW240 27/26 A2976 RMK SLP078
8/101 T02700255 57007=




000
SAZS31 NSTU 091352
MTRPPG
METAR NSTU 091350Z VRB02KT 10SM FEW021 FEW240 27/25 A2976 RMK SLP080
T02730254=




000
SAZS31 NSTU 091254
MTRPPG
METAR NSTU 091253Z 00000KT 10SM FEW021 FEW240 27/25 A2976 RMK SLP080
T02730254=




000
SAZS31 NSTU 091156
MTRPPG
METAR NSTU 091150Z 00000KT 10SM FEW021 FEW240 28/26 A2978 RMK SLP085
8/101 T02770255 10304 20277 55000=




000
SAZS31 NSTU 091156
MTRPPG
METAR NSTU 091150Z 00000KT 10SM FEW021 FEW240 28/26 A2978 RMK SLP085
8/101 T02770255 10304 20277 55000=




000
SAZS31 NSTU 091050
MTRPPG
METAR NSTU 091050Z 00000KT 10SM FEW021 FEW120 28/26 A2979 RMK SLP090
T02820255 404320263=




000
SAZS31 NSTU 091050
MTRPPG
METAR NSTU 091050Z 00000KT 10SM FEW021 FEW120 28/26 A2979 RMK SLP090
T02820255 404320263=




000
SAZS31 NSTU 090951
MTRPPG
METAR NSTU 090950Z VRB05KT 10SM FEW019 29/26 A2980 RMK SLP091
T02890255=




000
SAZS31 NSTU 090853
MTRPPG
METAR NSTU 090850Z VRB03KT 10SM FEW019 29/26 A2978 RMK SLP085 8/100
T02890255 53020=




000
SAZS31 NSTU 090853
MTRPPG
METAR NSTU 090850Z VRB03KT 10SM FEW019 29/26 A2978 RMK SLP085 8/100
T02890255 53020=




000
SAZS31 NSTU 090751
MTRPPG
METAR NSTU 090750Z VRB02KT 10SM FEW019 29/25 A2976 RMK SLP080
T02910254=




000
SAZS31 NSTU 090653
MTRPPG
METAR NSTU 090651Z VRB03KT 10SM FEW015 30/25 A2974 RMK SLP073
T02950253=





000
SAZS31 NSTU 090653
MTRPPG
METAR NSTU 090651Z VRB03KT 10SM FEW015 30/25 A2974 RMK SLP073
T02950253=





000
SAZS31 NSTU 090556
MTRPPG
METAR NSTU 090551Z VRB03KT 12SM SCT015 SCT100 30/25 A2972 RMK SLP064
8/101 T03040251 10432 20304 53007=





000
SAZS31 NSTU 090452
MTRPPG
METAR NSTU 090450Z VRB05KT 12SM SCT015 SCT038 31/25 A2971 RMK SLP061
T03120253=




000
SAZS31 NSTU 090356
MTRPPG
METAR NSTU 090355Z 33007KT 12SM SCT019 SCT120 32/25 A2970 RMK
SLP058 T03180248=




    US Dept of Commerce
    National Oceanic and Atmospheric Administration
    National Weather Service
    1325 East West Highway
    Silver Spring, MD 20910
    Page Author: NWS Internet Services Team
Disclaimer
Information Quality
Credits
Glossary
Privacy Policy
Freedom of Information Act (FOIA)
About Us
Career Opportunities